createdAt,value
2018-04-28T00:00:55.284Z,1002.48
2018-04-28T00:01:55.247Z,1002.50
2018-04-28T00:02:55.204Z,1002.48
2018-04-28T00:03:55.193Z,1002.48
2018-04-28T00:04:55.127Z,1002.52
2018-04-28T00:05:55.127Z,1002.48
2018-04-28T00:06:55.051Z,1002.50
2018-04-28T00:07:55.092Z,1002.52
2018-04-28T00:08:54.968Z,1002.56
2018-04-28T00:09:54.949Z,1002.55
2018-04-28T00:10:54.917Z,1002.60
2018-04-28T00:11:54.853Z,1002.63
2018-04-28T00:12:54.795Z,1002.60
2018-04-28T00:13:54.776Z,1002.68
2018-04-28T00:14:54.796Z,1002.70
2018-04-28T00:15:54.681Z,1002.74
2018-04-28T00:16:54.650Z,1002.71
2018-04-28T00:17:54.636Z,1002.75
2018-04-28T00:18:54.575Z,1002.76
2018-04-28T00:19:54.553Z,1002.76
2018-04-28T00:20:54.497Z,1002.75
2018-04-28T00:21:54.463Z,1002.80
2018-04-28T00:22:54.436Z,1002.78
2018-04-28T00:23:54.381Z,1002.80
2018-04-28T00:24:54.355Z,1002.81
2018-04-28T00:25:54.339Z,1002.81
2018-04-28T00:26:54.262Z,1002.82
2018-04-28T00:27:54.225Z,1002.88
2018-04-28T00:28:54.187Z,1002.84
2018-04-28T00:29:54.211Z,1002.88
2018-04-28T00:30:54.092Z,1002.87
2018-04-28T00:31:54.049Z,1002.84
2018-04-28T00:32:54.022Z,1002.85
2018-04-28T00:33:54.000Z,1002.82
2018-04-28T00:34:53.961Z,1002.85
2018-04-28T00:35:53.921Z,1002.87
2018-04-28T00:36:53.887Z,1002.85
2018-04-28T00:37:53.832Z,1002.85
2018-04-28T00:38:53.780Z,1002.84
2018-04-28T00:39:53.783Z,1002.83
2018-04-28T00:40:53.749Z,1002.84
2018-04-28T00:41:53.686Z,1002.87
2018-04-28T00:42:53.636Z,1002.87
2018-04-28T00:43:53.602Z,1002.89
2018-04-28T00:44:53.537Z,1002.85
2018-04-28T00:45:53.503Z,1002.87
2018-04-28T00:46:53.512Z,1002.87
2018-04-28T00:47:53.450Z,1002.86
2018-04-28T00:48:53.381Z,1002.87
2018-04-28T00:49:53.354Z,1002.85
2018-04-28T00:50:53.328Z,1002.89
2018-04-28T00:51:53.296Z,1002.88
2018-04-28T00:52:53.228Z,1002.87
2018-04-28T00:53:53.192Z,1002.89
2018-04-28T00:54:53.157Z,1002.88
2018-04-28T00:55:53.137Z,1002.84
2018-04-28T00:56:53.150Z,1002.87
2018-04-28T00:57:53.036Z,1002.86
2018-04-28T00:58:52.986Z,1002.85
2018-04-28T00:59:52.982Z,1002.90
2018-04-28T01:00:52.913Z,1002.87
2018-04-28T01:01:52.907Z,1002.87
2018-04-28T01:02:52.900Z,1002.90
2018-04-28T01:03:52.823Z,1002.87
2018-04-28T01:04:52.756Z,1002.86
2018-04-28T01:05:52.767Z,1002.85
2018-04-28T01:06:52.677Z,1002.88
2018-04-28T01:07:52.689Z,1002.90
2018-04-28T01:08:52.593Z,1002.87
2018-04-28T01:09:52.560Z,1002.88
2018-04-28T01:10:52.522Z,1002.84
2018-04-28T01:11:52.501Z,1002.87
2018-04-28T01:12:52.463Z,1002.87
2018-04-28T01:13:52.410Z,1002.90
2018-04-28T01:14:52.362Z,1002.88
2018-04-28T01:15:52.331Z,1002.87
2018-04-28T01:16:52.302Z,1002.93
2018-04-28T01:17:52.302Z,1002.94
2018-04-28T01:18:52.226Z,1002.91
2018-04-28T01:19:52.192Z,1002.96
2018-04-28T01:20:52.154Z,1002.97
2018-04-28T01:21:52.109Z,1003.03
2018-04-28T01:22:52.050Z,1003.03
2018-04-28T01:23:52.076Z,1003.05
2018-04-28T01:24:51.996Z,1003.05
2018-04-28T01:25:51.950Z,1003.06
2018-04-28T01:26:51.929Z,1003.03
2018-04-28T01:27:51.855Z,1003.09
2018-04-28T01:28:51.850Z,1003.06
2018-04-28T01:29:51.824Z,1003.07
2018-04-28T01:30:51.755Z,1003.03
2018-04-28T01:31:51.725Z,1003.06
2018-04-28T01:32:51.650Z,1003.07
2018-04-28T01:33:51.659Z,1003.07
2018-04-28T01:34:51.615Z,1003.09
2018-04-28T01:35:51.549Z,1003.03
2018-04-28T01:36:51.541Z,1003.07
2018-04-28T01:37:51.470Z,1003.04
2018-04-28T01:38:51.424Z,1003.01
2018-04-28T01:39:51.422Z,1003.06
2018-04-28T01:40:51.363Z,1003.05
2018-04-28T01:41:51.319Z,1003.07
2018-04-28T01:42:51.265Z,1003.08
2018-04-28T01:43:51.267Z,1003.05
2018-04-28T01:44:51.216Z,1003.16
2018-04-28T01:45:51.196Z,1003.13
2018-04-28T01:46:51.116Z,1003.17
2018-04-28T01:47:51.083Z,1003.18
2018-04-28T01:48:51.040Z,1003.20
2018-04-28T01:49:50.979Z,1003.20
2018-04-28T01:50:50.986Z,1003.21
2018-04-28T01:51:50.937Z,1003.21
2018-04-28T01:52:50.887Z,1003.20
2018-04-28T01:53:50.851Z,1003.25
2018-04-28T01:54:50.824Z,1003.26
2018-04-28T01:55:50.759Z,1003.20
2018-04-28T01:56:50.704Z,1003.26
2018-04-28T01:57:50.685Z,1003.28
2018-04-28T01:58:50.659Z,1003.31
2018-04-28T01:59:50.602Z,1003.31
2018-04-28T02:00:50.582Z,1003.32
2018-04-28T02:01:50.534Z,1003.34
2018-04-28T02:02:50.484Z,1003.31
2018-04-28T02:03:50.448Z,1003.32
2018-04-28T02:04:50.436Z,1003.36
2018-04-28T02:05:50.394Z,1003.38
2018-04-28T02:06:50.317Z,1003.36
2018-04-28T02:07:50.284Z,1003.34
2018-04-28T02:08:50.261Z,1003.38
2018-04-28T02:09:50.257Z,1003.43
2018-04-28T02:10:50.202Z,1003.43
2018-04-28T02:11:50.131Z,1003.42
2018-04-28T02:12:50.115Z,1003.44
2018-04-28T02:13:50.056Z,1003.47
2018-04-28T02:14:50.016Z,1003.45
2018-04-28T02:15:50.007Z,1003.50
2018-04-28T02:16:49.928Z,1003.51
2018-04-28T02:17:49.893Z,1003.47
2018-04-28T02:18:49.849Z,1003.52
2018-04-28T02:19:49.803Z,1003.51
2018-04-28T02:20:49.804Z,1003.55
2018-04-28T02:21:49.753Z,1003.56
2018-04-28T02:22:49.724Z,1003.57
2018-04-28T02:23:49.653Z,1003.57
2018-04-28T02:24:49.627Z,1003.56
2018-04-28T02:25:49.590Z,1003.54
2018-04-28T02:26:49.564Z,1003.52
2018-04-28T02:27:49.500Z,1003.53
2018-04-28T02:28:49.445Z,1003.57
2018-04-28T02:29:49.420Z,1003.55
2018-04-28T02:30:49.397Z,1003.58
2018-04-28T02:31:49.379Z,1003.58
2018-04-28T02:32:49.298Z,1003.57
2018-04-28T02:33:49.272Z,1003.58
2018-04-28T02:34:49.241Z,1003.60
2018-04-28T02:35:49.192Z,1003.57
2018-04-28T02:36:49.122Z,1003.56
2018-04-28T02:37:49.133Z,1003.58
2018-04-28T02:38:49.052Z,1003.51
2018-04-28T02:39:49.037Z,1003.53
2018-04-28T02:40:49.093Z,1003.53
2018-04-28T02:41:48.974Z,1003.54
2018-04-28T02:42:48.975Z,1003.59
2018-04-28T02:43:48.882Z,1003.59
2018-04-28T02:44:48.853Z,1003.64
2018-04-28T02:45:48.780Z,1003.63
2018-04-28T02:46:48.755Z,1003.63
2018-04-28T02:47:48.734Z,1003.62
2018-04-28T02:48:48.670Z,1003.56
2018-04-28T02:49:48.628Z,1003.60
2018-04-28T02:50:48.602Z,1003.57
2018-04-28T02:51:48.555Z,1003.58
2018-04-28T02:52:48.541Z,1003.53
2018-04-28T02:53:48.469Z,1003.52
2018-04-28T02:54:48.445Z,1003.50
2018-04-28T02:55:48.376Z,1003.48
2018-04-28T02:56:48.353Z,1003.50
2018-04-28T02:57:48.337Z,1003.49
2018-04-28T02:58:48.270Z,1003.47
2018-04-28T02:59:48.231Z,1003.51
2018-04-28T03:00:48.205Z,1003.51
2018-04-28T03:01:48.186Z,1003.46
2018-04-28T03:02:48.120Z,1003.48
2018-04-28T03:03:48.118Z,1003.49
2018-04-28T03:04:48.020Z,1003.47
2018-04-28T03:05:48.004Z,1003.51
2018-04-28T03:06:47.960Z,1003.51
2018-04-28T03:07:47.912Z,1003.49
2018-04-28T03:08:47.867Z,1003.52
2018-04-28T03:09:47.851Z,1003.48
2018-04-28T03:10:47.807Z,1003.47
2018-04-28T03:11:47.762Z,1003.47
2018-04-28T03:12:47.768Z,1003.52
2018-04-28T03:13:47.675Z,1003.53
2018-04-28T03:14:47.689Z,1003.53
2018-04-28T03:15:47.606Z,1003.50
2018-04-28T03:16:47.559Z,1003.54
2018-04-28T03:17:47.513Z,1003.56
2018-04-28T03:18:47.515Z,1003.54
2018-04-28T03:19:47.440Z,1003.53
2018-04-28T03:20:47.446Z,1003.52
2018-04-28T03:21:47.382Z,1003.52
2018-04-28T03:22:47.320Z,1003.54
2018-04-28T03:23:47.306Z,1003.54
2018-04-28T03:24:47.253Z,1003.56
2018-04-28T03:25:47.201Z,1003.54
2018-04-28T03:26:47.157Z,1003.54
2018-04-28T03:27:47.125Z,1003.58
2018-04-28T03:28:47.072Z,1003.60
2018-04-28T03:29:47.077Z,1003.61
2018-04-28T03:30:47.003Z,1003.60
2018-04-28T03:31:46.976Z,1003.59
2018-04-28T03:32:46.917Z,1003.60
2018-04-28T03:33:46.890Z,1003.60
2018-04-28T03:34:46.864Z,1003.64
2018-04-28T03:35:46.795Z,1003.63
2018-04-28T03:36:46.791Z,1003.65
2018-04-28T03:37:46.703Z,1003.68
2018-04-28T03:38:46.672Z,1003.63
2018-04-28T03:39:46.700Z,1003.66
2018-04-28T03:40:46.615Z,1003.66
2018-04-28T03:41:46.565Z,1003.66
2018-04-28T03:42:46.530Z,1003.66
2018-04-28T03:43:46.495Z,1003.67
2018-04-28T03:44:46.444Z,1003.67
2018-04-28T03:45:46.474Z,1003.73
2018-04-28T03:46:46.374Z,1003.71
2018-04-28T03:47:46.328Z,1003.64
2018-04-28T03:48:46.276Z,1003.64
2018-04-28T03:49:46.254Z,1003.66
2018-04-28T03:50:46.242Z,1003.63
2018-04-28T03:51:46.187Z,1003.69
2018-04-28T03:52:46.117Z,1003.72
2018-04-28T03:53:46.094Z,1003.72
2018-04-28T03:54:46.041Z,1003.72
2018-04-28T03:55:46.016Z,1003.73
2018-04-28T03:56:45.966Z,1003.77
2018-04-28T03:57:45.938Z,1003.76
2018-04-28T03:58:45.901Z,1003.76
2018-04-28T03:59:45.845Z,1003.78
2018-04-28T04:00:45.823Z,1003.76
2018-04-28T04:01:45.756Z,1003.75
2018-04-28T04:02:45.728Z,1003.79
2018-04-28T04:03:45.718Z,1003.80
2018-04-28T04:04:45.726Z,1003.77
2018-04-28T04:05:45.631Z,1003.78
2018-04-28T04:06:45.558Z,1003.77
2018-04-28T04:07:45.584Z,1003.76
2018-04-28T04:08:45.498Z,1003.76
2018-04-28T04:09:45.448Z,1003.77
2018-04-28T04:10:45.475Z,1003.79
2018-04-28T04:11:45.356Z,1003.81
2018-04-28T04:12:45.319Z,1003.83
2018-04-28T04:13:45.289Z,1003.82
2018-04-28T04:14:45.243Z,1003.86
2018-04-28T04:15:45.218Z,1003.83
2018-04-28T04:16:45.249Z,1003.87
2018-04-28T04:17:45.149Z,1003.90
2018-04-28T04:18:45.094Z,1003.89
2018-04-28T04:19:45.035Z,1003.90
2018-04-28T04:20:45.048Z,1003.88
2018-04-28T04:21:44.969Z,1003.94
2018-04-28T04:22:44.943Z,1003.90
2018-04-28T04:23:44.890Z,1003.91
2018-04-28T04:24:44.859Z,1003.95
2018-04-28T04:25:44.846Z,1003.97
2018-04-28T04:26:44.784Z,1004.00
2018-04-28T04:27:44.714Z,1003.98
2018-04-28T04:28:44.729Z,1003.99
2018-04-28T04:29:44.636Z,1003.95
2018-04-28T04:30:44.660Z,1003.98
2018-04-28T04:31:44.578Z,1004.01
2018-04-28T04:32:44.538Z,1003.98
2018-04-28T04:33:44.485Z,1004.01
2018-04-28T04:34:44.512Z,1004.05
2018-04-28T04:35:44.460Z,1004.04
2018-04-28T04:36:44.380Z,1004.04
2018-04-28T04:37:44.355Z,1004.07
2018-04-28T04:38:44.294Z,1004.07
2018-04-28T04:39:44.245Z,1004.07
2018-04-28T04:40:44.211Z,1004.09
2018-04-28T04:41:44.223Z,1004.13
2018-04-28T04:42:44.167Z,1004.15
2018-04-28T04:43:44.097Z,1004.12
2018-04-28T04:44:44.062Z,1004.11
2018-04-28T04:45:44.008Z,1004.09
2018-04-28T04:46:44.006Z,1004.15
2018-04-28T04:47:43.967Z,1004.18
2018-04-28T04:48:43.939Z,1004.19
2018-04-28T04:49:43.867Z,1004.16
2018-04-28T04:50:43.852Z,1004.16
2018-04-28T04:51:43.796Z,1004.20
2018-04-28T04:52:43.754Z,1004.23
2018-04-28T04:53:43.740Z,1004.24
2018-04-28T04:54:43.672Z,1004.24
2018-04-28T04:55:43.631Z,1004.24
2018-04-28T04:56:43.602Z,1004.31
2018-04-28T04:57:43.572Z,1004.30
2018-04-28T04:58:43.549Z,1004.32
2018-04-28T04:59:43.486Z,1004.31
2018-04-28T05:00:43.439Z,1004.34
2018-04-28T05:01:43.422Z,1004.37
2018-04-28T05:02:43.386Z,1004.36
2018-04-28T05:03:43.316Z,1004.32
2018-04-28T05:04:43.305Z,1004.37
2018-04-28T05:05:43.238Z,1004.37
2018-04-28T05:06:43.213Z,1004.40
2018-04-28T05:07:43.188Z,1004.43
2018-04-28T05:08:43.146Z,1004.43
2018-04-28T05:09:43.071Z,1004.42
2018-04-28T05:10:43.064Z,1004.44
2018-04-28T05:11:43.017Z,1004.41
2018-04-28T05:12:42.994Z,1004.47
2018-04-28T05:13:42.926Z,1004.58
2018-04-28T05:14:42.950Z,1004.58
2018-04-28T05:15:42.842Z,1004.61
2018-04-28T05:16:42.797Z,1004.63
2018-04-28T05:17:42.751Z,1004.53
2018-04-28T05:18:42.755Z,1004.57
2018-04-28T05:19:42.684Z,1004.54
2018-04-28T05:20:42.691Z,1004.59
2018-04-28T05:21:42.602Z,1004.60
2018-04-28T05:22:42.597Z,1004.60
2018-04-28T05:23:42.526Z,1004.60
2018-04-28T05:24:42.494Z,1004.61
2018-04-28T05:25:42.460Z,1004.63
2018-04-28T05:26:42.431Z,1004.66
2018-04-28T05:27:42.410Z,1004.67
2018-04-28T05:28:42.425Z,1004.66
2018-04-28T05:29:42.299Z,1004.72
2018-04-28T05:30:42.266Z,1004.67
2018-04-28T05:31:42.230Z,1004.74
2018-04-28T05:32:42.184Z,1004.74
2018-04-28T05:33:42.168Z,1004.69
2018-04-28T05:34:42.112Z,1004.75
2018-04-28T05:35:42.071Z,1004.63
2018-04-28T05:36:42.033Z,1004.74
2018-04-28T05:37:41.989Z,1004.73
2018-04-28T05:38:41.983Z,1004.76
2018-04-28T05:39:41.926Z,1004.77
2018-04-28T05:40:41.887Z,1004.70
2018-04-28T05:41:41.863Z,1004.79
2018-04-28T05:42:41.832Z,1004.75
2018-04-28T05:43:41.800Z,1004.79
2018-04-28T05:44:41.780Z,1004.83
2018-04-28T05:45:41.688Z,1004.81
2018-04-28T05:46:41.657Z,1004.83
2018-04-28T05:47:41.620Z,1004.86
2018-04-28T05:48:41.609Z,1004.90
2018-04-28T05:49:41.536Z,1004.93
2018-04-28T05:50:41.528Z,1004.92
2018-04-28T05:51:41.464Z,1004.94
2018-04-28T05:52:41.438Z,1004.99
2018-04-28T05:53:41.395Z,1004.92
2018-04-28T05:54:41.368Z,1004.97
2018-04-28T05:55:41.340Z,1005.00
2018-04-28T05:56:41.277Z,1004.97
2018-04-28T05:57:41.250Z,1005.02
2018-04-28T05:58:41.213Z,1004.98
2018-04-28T05:59:41.177Z,1004.99
2018-04-28T06:00:41.164Z,1005.04
2018-04-28T06:01:41.092Z,1005.03
2018-04-28T06:02:41.088Z,1005.05
2018-04-28T06:03:41.032Z,1005.04
2018-04-28T06:04:40.984Z,1005.07
2018-04-28T06:05:40.936Z,1005.06
2018-04-28T06:06:40.910Z,1005.07
2018-04-28T06:07:40.860Z,1005.09
2018-04-28T06:08:40.822Z,1005.12
2018-04-28T06:09:40.803Z,1005.15
2018-04-28T06:10:40.762Z,1005.15
2018-04-28T06:11:40.739Z,1005.19
2018-04-28T06:12:40.845Z,1005.18
2018-04-28T06:13:40.641Z,1005.21
2018-04-28T06:14:40.592Z,1005.24
2018-04-28T06:15:40.551Z,1005.25
2018-04-28T06:16:40.544Z,1005.24
2018-04-28T06:17:40.528Z,1005.27
2018-04-28T06:18:40.449Z,1005.28
2018-04-28T06:19:40.409Z,1005.27
2018-04-28T06:20:40.369Z,1005.27
2018-04-28T06:21:40.344Z,1005.26
2018-04-28T06:22:40.339Z,1005.26
2018-04-28T06:23:40.258Z,1005.32
2018-04-28T06:24:40.223Z,1005.30
2018-04-28T06:25:40.219Z,1005.28
2018-04-28T06:26:40.168Z,1005.29
2018-04-28T06:27:40.139Z,1005.35
2018-04-28T06:28:40.065Z,1005.32
2018-04-28T06:29:40.013Z,1005.34
2018-04-28T06:30:40.088Z,1005.33
2018-04-28T06:31:39.985Z,1005.33
2018-04-28T06:32:39.910Z,1005.33
2018-04-28T06:33:39.926Z,1005.37
2018-04-28T06:34:39.839Z,1005.33
2018-04-28T06:35:39.813Z,1005.38
2018-04-28T06:36:39.802Z,1005.35
2018-04-28T06:37:39.733Z,1005.32
2018-04-28T06:38:39.720Z,1005.37
2018-04-28T06:39:39.666Z,1005.38
2018-04-28T06:40:39.653Z,1005.42
2018-04-28T06:41:39.579Z,1005.34
2018-04-28T06:42:40.135Z,1005.39
2018-04-28T06:43:39.505Z,1005.41
2018-04-28T06:44:39.473Z,1005.45
2018-04-28T06:45:39.466Z,1005.39
2018-04-28T06:46:39.456Z,1005.41
2018-04-28T06:47:39.367Z,1005.41
2018-04-28T06:48:39.321Z,1005.41
2018-04-28T06:49:39.288Z,1005.45
2018-04-28T06:50:39.270Z,1005.49
2018-04-28T06:51:39.230Z,1005.48
2018-04-28T06:52:39.188Z,1005.51
2018-04-28T06:53:39.126Z,1005.49
2018-04-28T06:54:39.100Z,1005.51
2018-04-28T06:55:39.056Z,1005.48
2018-04-28T06:56:39.042Z,1005.52
2018-04-28T06:57:38.981Z,1005.49
2018-04-28T06:58:39.035Z,1005.58
2018-04-28T06:59:38.944Z,1005.56
2018-04-28T07:00:38.874Z,1005.56
2018-04-28T07:01:38.842Z,1005.59
2018-04-28T07:02:38.812Z,1005.59
2018-04-28T07:03:38.754Z,1005.64
2018-04-28T07:04:38.755Z,1005.63
2018-04-28T07:05:38.692Z,1005.62
2018-04-28T07:06:38.649Z,1005.61
2018-04-28T07:07:38.638Z,1005.62
2018-04-28T07:08:38.560Z,1005.66
2018-04-28T07:09:38.531Z,1005.59
2018-04-28T07:10:38.495Z,1005.65
2018-04-28T07:11:38.457Z,1005.65
2018-04-28T07:12:38.431Z,1005.66
2018-04-28T07:13:38.423Z,1005.64
2018-04-28T07:14:38.345Z,1005.72
2018-04-28T07:15:38.326Z,1005.70
2018-04-28T07:16:38.261Z,1005.69
2018-04-28T07:17:38.245Z,1005.65
2018-04-28T07:18:38.219Z,1005.70
2018-04-28T07:19:38.162Z,1005.71
2018-04-28T07:20:38.122Z,1005.72
2018-04-28T07:21:38.090Z,1005.67
2018-04-28T07:22:38.041Z,1005.71
2018-04-28T07:23:38.035Z,1005.67
2018-04-28T07:24:37.969Z,1005.67
2018-04-28T07:25:37.935Z,1005.63
2018-04-28T07:26:37.909Z,1005.62
2018-04-28T07:27:37.866Z,1005.68
2018-04-28T07:28:37.852Z,1005.68
2018-04-28T07:29:37.804Z,1005.67
2018-04-28T07:30:37.748Z,1005.65
2018-04-28T07:31:37.736Z,1005.64
2018-04-28T07:32:37.677Z,1005.66
2018-04-28T07:33:37.685Z,1005.61
2018-04-28T07:34:37.629Z,1005.70
2018-04-28T07:35:37.573Z,1005.71
2018-04-28T07:36:37.523Z,1005.71
2018-04-28T07:37:37.502Z,1005.75
2018-04-28T07:38:37.476Z,1005.79
2018-04-28T07:39:37.437Z,1005.85
2018-04-28T07:40:37.380Z,1005.82
2018-04-28T07:41:37.341Z,1005.85
2018-04-28T07:42:37.303Z,1005.89
2018-04-28T07:43:37.304Z,1005.86
2018-04-28T07:44:37.233Z,1005.94
2018-04-28T07:45:37.196Z,1005.91
2018-04-28T07:46:37.179Z,1005.94
2018-04-28T07:47:37.139Z,1005.92
2018-04-28T07:48:37.081Z,1005.91
2018-04-28T07:49:37.069Z,1005.93
2018-04-28T07:50:37.006Z,1005.98
2018-04-28T07:51:36.977Z,1006.02
2018-04-28T07:52:36.945Z,1005.97
2018-04-28T07:53:36.905Z,1005.98
2018-04-28T07:54:36.888Z,1006.01
2018-04-28T07:55:36.830Z,1006.02
2018-04-28T07:56:36.797Z,1005.94
2018-04-28T07:57:36.759Z,1005.93
2018-04-28T07:58:36.729Z,1005.92
2018-04-28T07:59:36.713Z,1006.06
2018-04-28T08:00:36.647Z,1006.01
2018-04-28T08:01:36.624Z,1006.01
2018-04-28T08:02:36.572Z,1006.03
2018-04-28T08:03:36.546Z,1006.03
2018-04-28T08:04:36.542Z,1006.05
2018-04-28T08:05:36.474Z,1006.08
2018-04-28T08:06:36.435Z,1006.07
2018-04-28T08:07:36.398Z,1006.04
2018-04-28T08:08:36.360Z,1006.04
2018-04-28T08:09:36.333Z,1006.05
2018-04-28T08:10:36.321Z,1006.07
2018-04-28T08:11:36.278Z,1006.07
2018-04-28T08:12:36.230Z,1006.06
2018-04-28T08:13:36.197Z,1006.00
2018-04-28T08:14:36.168Z,1006.03
2018-04-28T08:15:36.156Z,1006.01
2018-04-28T08:16:36.087Z,1006.00
2018-04-28T08:17:36.055Z,1006.01
2018-04-28T08:18:36.017Z,1005.90
2018-04-28T08:19:35.985Z,1006.02
2018-04-28T08:20:36.037Z,1006.02
2018-04-28T08:21:35.920Z,1006.03
2018-04-28T08:22:35.878Z,1006.06
2018-04-28T08:23:35.847Z,1006.08
2018-04-28T08:24:35.805Z,1006.12
2018-04-28T08:25:35.806Z,1006.09
2018-04-28T08:26:35.784Z,1006.09
2018-04-28T08:27:35.700Z,1006.10
2018-04-28T08:28:35.673Z,1006.15
2018-04-28T08:29:35.624Z,1006.15
2018-04-28T08:30:35.612Z,1006.12
2018-04-28T08:31:35.589Z,1006.09
2018-04-28T08:32:35.526Z,1006.08
2018-04-28T08:33:35.493Z,1006.09
2018-04-28T08:34:35.452Z,1006.06
2018-04-28T08:35:35.458Z,1006.00
2018-04-28T08:36:35.392Z,1005.95
2018-04-28T08:37:35.355Z,1005.98
2018-04-28T08:38:35.321Z,1005.94
2018-04-28T08:39:35.276Z,1005.93
2018-04-28T08:40:35.246Z,1005.93
2018-04-28T08:41:35.243Z,1005.96
2018-04-28T08:42:35.179Z,1005.90
2018-04-28T08:43:35.158Z,1005.97
2018-04-28T08:44:35.108Z,1005.98
2018-04-28T08:45:35.154Z,1005.98
2018-04-28T08:46:35.063Z,1005.99
2018-04-28T08:47:35.013Z,1006.01
2018-04-28T08:48:34.972Z,1005.98
2018-04-28T08:49:34.949Z,1006.05
2018-04-28T08:50:34.907Z,1005.98
2018-04-28T08:51:34.891Z,1005.99
2018-04-28T08:52:34.834Z,1006.01
2018-04-28T08:53:34.790Z,1005.98
2018-04-28T08:54:34.753Z,1005.99
2018-04-28T08:55:34.725Z,1006.01
2018-04-28T08:56:34.739Z,1006.00
2018-04-28T08:57:34.672Z,1005.98
2018-04-28T08:58:34.612Z,1005.91
2018-04-28T08:59:34.590Z,1005.91
2018-04-28T09:00:34.545Z,1005.95
2018-04-28T09:01:34.501Z,1005.94
2018-04-28T09:02:34.511Z,1005.92
2018-04-28T09:03:34.448Z,1005.95
2018-04-28T09:04:34.402Z,1005.97
2018-04-28T09:05:34.370Z,1006.06
2018-04-28T09:06:34.322Z,1006.05
2018-04-28T09:07:34.318Z,1006.12
2018-04-28T09:08:34.278Z,1006.10
2018-04-28T09:09:34.215Z,1006.14
2018-04-28T09:10:34.193Z,1006.13
2018-04-28T09:11:34.145Z,1006.04
2018-04-28T09:12:34.116Z,1006.08
2018-04-28T09:13:34.108Z,1006.03
2018-04-28T09:14:34.043Z,1006.01
2018-04-28T09:15:34.007Z,1005.99
2018-04-28T09:16:33.972Z,1005.96
2018-04-28T09:17:33.939Z,1006.00
2018-04-28T09:18:33.917Z,1006.02
2018-04-28T09:19:33.942Z,1006.02
2018-04-28T09:20:33.829Z,1006.04
2018-04-28T09:21:33.783Z,1005.98
2018-04-28T09:22:33.755Z,1005.99
2018-04-28T09:23:33.742Z,1006.07
2018-04-28T09:24:33.678Z,1006.07
2018-04-28T09:25:33.662Z,1006.12
2018-04-28T09:26:33.611Z,1006.08
2018-04-28T09:27:33.600Z,1006.14
2018-04-28T09:28:33.540Z,1006.12
2018-04-28T09:29:33.498Z,1006.15
2018-04-28T09:30:33.469Z,1006.15
2018-04-28T09:31:33.418Z,1006.13
2018-04-28T09:32:33.397Z,1006.09
2018-04-28T09:33:33.383Z,1006.16
2018-04-28T09:34:33.319Z,1006.23
2018-04-28T09:35:33.274Z,1006.15
2018-04-28T09:36:33.244Z,1006.19
2018-04-28T09:37:33.208Z,1006.18
2018-04-28T09:38:33.196Z,1006.17
2018-04-28T09:39:33.139Z,1006.11
2018-04-28T09:40:33.112Z,1006.14
2018-04-28T09:41:33.067Z,1006.13
2018-04-28T09:42:33.027Z,1006.15
2018-04-28T09:43:33.011Z,1006.15
2018-04-28T09:44:32.957Z,1006.17
2018-04-28T09:45:32.919Z,1006.13
2018-04-28T09:46:32.889Z,1006.09
2018-04-28T09:47:32.857Z,1006.17
2018-04-28T09:48:32.838Z,1006.13
2018-04-28T09:49:32.782Z,1006.09
2018-04-28T09:50:32.746Z,1006.11
2018-04-28T09:51:32.703Z,1006.08
2018-04-28T09:52:32.684Z,1006.03
2018-04-28T09:53:32.668Z,1006.12
2018-04-28T09:54:32.610Z,1006.08
2018-04-28T09:55:32.550Z,1006.05
2018-04-28T09:56:32.521Z,1006.07
2018-04-28T09:57:32.494Z,1006.17
2018-04-28T09:58:32.476Z,1006.96
2018-04-28T09:59:32.413Z,1007.01
2018-04-28T10:00:32.372Z,1007.31
2018-04-28T10:01:32.352Z,1006.45
2018-04-28T10:02:32.305Z,1006.40
2018-04-28T10:03:32.294Z,1006.35
2018-04-28T10:04:32.236Z,1006.41
2018-04-28T10:05:32.203Z,1006.37
2018-04-28T10:06:32.164Z,1006.36
2018-04-28T10:07:32.129Z,1006.40
2018-04-28T10:08:32.123Z,1006.39
2018-04-28T10:09:32.061Z,1006.38
2018-04-28T10:10:32.030Z,1006.39
2018-04-28T10:11:31.994Z,1006.29
2018-04-28T10:12:31.944Z,1006.35
2018-04-28T10:13:31.942Z,1006.38
2018-04-28T10:14:31.993Z,1006.31
2018-04-28T10:15:31.847Z,1006.38
2018-04-28T10:16:31.813Z,1006.39
2018-04-28T10:17:31.785Z,1006.42
2018-04-28T10:18:31.751Z,1006.42
2018-04-28T10:19:31.747Z,1006.38
2018-04-28T10:20:31.686Z,1006.40
2018-04-28T10:21:31.640Z,1006.32
2018-04-28T10:22:31.602Z,1006.21
2018-04-28T10:23:31.571Z,1006.37
2018-04-28T10:24:31.548Z,1006.34
2018-04-28T10:25:31.497Z,1006.31
2018-04-28T10:26:31.457Z,1006.34
2018-04-28T10:27:31.434Z,1006.34
2018-04-28T10:28:31.400Z,1006.32
2018-04-28T10:29:31.382Z,1006.33
2018-04-28T10:30:31.331Z,1006.35
2018-04-28T10:31:31.284Z,1006.32
2018-04-28T10:32:31.252Z,1006.43
2018-04-28T10:33:31.218Z,1006.28
2018-04-28T10:34:31.182Z,1006.52
2018-04-28T10:35:31.173Z,1006.43
2018-04-28T10:36:31.119Z,1006.47
2018-04-28T10:37:31.083Z,1006.43
2018-04-28T10:38:31.046Z,1006.41
2018-04-28T10:39:31.038Z,1006.37
2018-04-28T10:40:30.967Z,1006.38
2018-04-28T10:41:30.931Z,1006.33
2018-04-28T10:42:30.920Z,1006.41
2018-04-28T10:43:30.862Z,1006.38
2018-04-28T10:44:30.862Z,1006.46
2018-04-28T10:45:30.791Z,1006.41
2018-04-28T10:46:30.753Z,1006.34
2018-04-28T10:47:30.848Z,1006.35
2018-04-28T10:48:30.697Z,1006.36
2018-04-28T10:49:30.654Z,1006.29
2018-04-28T10:50:30.653Z,1006.37
2018-04-28T10:51:30.586Z,1006.28
2018-04-28T10:52:30.548Z,1006.27
2018-04-28T10:53:30.508Z,1006.22
2018-04-28T10:54:30.490Z,1006.23
2018-04-28T10:55:30.475Z,1006.23
2018-04-28T10:56:30.414Z,1006.27
2018-04-28T10:57:30.378Z,1006.29
2018-04-28T10:58:30.332Z,1006.28
2018-04-28T10:59:30.318Z,1006.29
2018-04-28T11:00:30.310Z,1006.32
2018-04-28T11:01:30.266Z,1006.25
2018-04-28T11:02:30.200Z,1006.24
2018-04-28T11:03:30.162Z,1006.28
2018-04-28T11:04:30.126Z,1006.24
2018-04-28T11:05:30.115Z,1006.20
2018-04-28T11:06:30.075Z,1006.18
2018-04-28T11:07:30.022Z,1006.20
2018-04-28T11:08:29.990Z,1006.10
2018-04-28T11:09:30.326Z,1006.19
2018-04-28T11:10:29.931Z,1006.14
2018-04-28T11:11:30.003Z,1006.11
2018-04-28T11:12:29.851Z,1006.07
2018-04-28T11:13:29.806Z,1006.08
2018-04-28T11:14:29.843Z,1006.12
2018-04-28T11:15:29.765Z,1006.13
2018-04-28T11:16:29.749Z,1006.15
2018-04-28T11:17:29.680Z,1006.13
2018-04-28T11:18:29.631Z,1006.16
2018-04-28T11:19:29.677Z,1006.16
2018-04-28T11:20:29.559Z,1006.19
2018-04-28T11:21:29.517Z,1006.13
2018-04-28T11:22:29.515Z,1006.16
2018-04-28T11:23:29.450Z,1006.12
2018-04-28T11:24:29.432Z,1006.10
2018-04-28T11:25:29.469Z,1006.08
2018-04-28T11:26:29.347Z,1006.10
2018-04-28T11:27:29.349Z,1006.09
2018-04-28T11:28:29.271Z,1006.06
2018-04-28T11:29:29.233Z,1006.06
2018-04-28T11:30:29.187Z,1006.04
2018-04-28T11:31:29.166Z,1006.06
2018-04-28T11:32:29.151Z,1006.06
2018-04-28T11:33:29.084Z,1006.10
2018-04-28T11:34:29.052Z,1006.12
2018-04-28T11:35:29.007Z,1006.15
2018-04-28T11:36:28.979Z,1006.19
2018-04-28T11:37:28.960Z,1006.19
2018-04-28T11:38:28.904Z,1006.24
2018-04-28T11:39:28.865Z,1006.97
2018-04-28T11:40:28.825Z,1006.47
2018-04-28T11:41:28.809Z,1006.46
2018-04-28T11:42:28.779Z,1006.46
2018-04-28T11:43:28.738Z,1006.43
2018-04-28T11:44:28.693Z,1006.35
2018-04-28T11:45:28.646Z,1006.39
2018-04-28T11:46:28.613Z,1006.29
2018-04-28T11:47:28.598Z,1006.23
2018-04-28T11:48:28.534Z,1006.25
2018-04-28T11:49:28.504Z,1006.19
2018-04-28T11:50:28.468Z,1006.17
2018-04-28T11:51:28.440Z,1006.20
2018-04-28T11:52:28.407Z,1006.18
2018-04-28T11:53:28.397Z,1006.22
2018-04-28T11:54:28.329Z,1006.26
2018-04-28T11:55:28.288Z,1006.25
2018-04-28T11:56:28.257Z,1006.26
2018-04-28T11:57:28.225Z,1006.26
2018-04-28T11:58:28.220Z,1006.28
2018-04-28T11:59:28.149Z,1006.36
2018-04-28T12:00:28.109Z,1006.29
2018-04-28T12:01:28.089Z,1006.25
2018-04-28T12:02:28.052Z,1006.21
2018-04-28T12:03:28.039Z,1006.21
2018-04-28T12:04:27.987Z,1006.17
2018-04-28T12:05:27.939Z,1006.15